createdAt,value
2019-04-21T00:03:27.412Z,5.7
2019-04-21T00:09:17.685Z,5.7
2019-04-21T00:13:46.562Z,5.8
2019-04-21T00:18:23.266Z,6.8
2019-04-21T00:24:04.749Z,6.1
2019-04-21T00:29:30.065Z,6.5
2019-04-21T00:33:50.056Z,6.5
2019-04-21T00:39:55.546Z,6.8
2019-04-21T00:44:21.328Z,6.6
2019-04-21T00:49:39.424Z,7
2019-04-21T00:55:07.492Z,6.7
2019-04-21T01:00:06.763Z,6.9
2019-04-21T01:05:25.270Z,7.1
2019-04-21T01:10:05.083Z,6.9
2019-04-21T01:15:24.164Z,7.1
2019-04-21T01:20:10.125Z,6.2
2019-04-21T01:24:57.715Z,6.6
2019-04-21T01:30:34.031Z,6.5
2019-04-21T01:35:32.732Z,6.5
2019-04-21T01:40:52.549Z,6.8
2019-04-21T01:45:43.307Z,6.7
2019-04-21T01:50:46.159Z,6.9
2019-04-21T01:55:53.944Z,6.9
2019-04-21T02:00:51.650Z,6.6
2019-04-21T02:06:26.926Z,7.3
2019-04-21T02:11:16.726Z,6.9
2019-04-21T02:16:22.585Z,7.3
2019-04-21T02:20:57.857Z,6.8
2019-04-21T02:26:26.464Z,7.1
2019-04-21T02:31:44.099Z,7.5
2019-04-21T02:37:03.293Z,7.3
2019-04-21T02:42:00.554Z,6.8
2019-04-21T02:47:03.380Z,6.8
2019-04-21T02:52:11.318Z,7.1
2019-04-21T02:57:21.235Z,7.5
2019-04-21T03:02:33.381Z,7.7
2019-04-21T03:07:29.826Z,7.7
2019-04-21T03:12:43.750Z,8
2019-04-21T03:18:03.555Z,8.1
2019-04-21T03:22:52.907Z,8.5
2019-04-21T03:28:13.337Z,8.3
2019-04-21T03:38:14.572Z,8
2019-04-21T03:43:19.877Z,8
2019-04-21T03:48:16.595Z,8
2019-04-21T03:53:18.297Z,8.6
2019-04-21T04:18:52.086Z,8.2
2019-04-21T04:34:12.396Z,9
2019-04-21T04:39:25.352Z,9.3
2019-04-21T04:44:10.753Z,9.3
2019-04-21T04:49:36.151Z,8.7
2019-04-21T04:54:38.547Z,8.8
2019-04-21T04:59:58.052Z,8.4
2019-04-21T05:09:30.384Z,8.3
2019-04-21T05:14:29.603Z,8
2019-04-21T05:20:41.417Z,8.7
2019-04-21T05:24:27.869Z,8.6
2019-04-21T05:29:08.856Z,8.5
2019-04-21T05:34:35.455Z,8.2
2019-04-21T05:39:32.733Z,8.2
2019-04-21T05:45:01.451Z,8.2
2019-04-21T05:49:55.147Z,8.5
2019-04-21T05:55:09.016Z,8.7
2019-04-21T06:00:14.289Z,9.3
2019-04-21T06:06:45.708Z,11.4
2019-04-21T06:10:19.878Z,11
2019-04-21T06:15:29.189Z,9.5
2019-04-21T06:20:33.225Z,8.9
2019-04-21T06:26:17.732Z,7.7
2019-04-21T06:30:48.476Z,6.9
2019-04-21T06:36:23.077Z,6
2019-04-21T06:41:11.270Z,5.6
2019-04-21T06:46:08.535Z,5.9
2019-04-21T06:51:22.140Z,5.8
2019-04-21T06:56:11.918Z,6.2
2019-04-21T07:01:14.551Z,6.2
2019-04-21T07:06:35.116Z,5.7
2019-04-21T07:11:25.151Z,6.6
2019-04-21T07:16:38.305Z,5.7
2019-04-21T07:21:33.681Z,5.7
2019-04-21T07:26:36.158Z,5.2
2019-04-21T07:31:58.542Z,5.2
2019-04-21T07:36:57.686Z,5.2
2019-04-21T07:41:43.611Z,5.2
2019-04-21T07:46:33.568Z,5
2019-04-21T07:52:10.742Z,5.1
2019-04-21T07:56:34.771Z,5.1
2019-04-21T08:02:08.304Z,5.7
2019-04-21T08:07:18.962Z,5.1
2019-04-21T08:12:07.860Z,4.7
2019-04-21T08:17:30.061Z,4.4
2019-04-21T08:22:31.885Z,4.4
2019-04-21T08:27:53.720Z,4
2019-04-21T08:33:15.798Z,4.4
2019-04-21T08:37:47.978Z,4.1
2019-04-21T08:42:59.471Z,3.8
2019-04-21T08:48:09.997Z,4.1
2019-04-21T08:53:19.335Z,4.1
2019-04-21T08:58:21.669Z,4.4
2019-04-21T09:03:06.260Z,4
2019-04-21T09:08:19.349Z,4
2019-04-21T09:13:09.937Z,4.1
2019-04-21T09:18:08.301Z,3.6
2019-04-21T09:23:19.058Z,3.6
2019-04-21T09:28:19.672Z,3.8
2019-04-21T09:32:57.938Z,3.9
2019-04-21T09:38:26.214Z,3.7
2019-04-21T09:43:15.532Z,4.2
2019-04-21T09:48:19.448Z,3.5
2019-04-21T09:53:26.785Z,4.3
2019-04-21T09:58:33.425Z,4.5
2019-04-21T10:03:24.751Z,4.3
2019-04-21T10:08:34.148Z,4.1
2019-04-21T10:13:42.774Z,4
2019-04-21T10:18:52.314Z,4.1
2019-04-21T10:23:52.166Z,3.8
2019-04-21T10:29:16.883Z,3.5
2019-04-21T10:34:09.241Z,4.1
2019-04-21T10:39:17.792Z,3.7
2019-04-21T10:44:27.308Z,4.1
2019-04-21T10:49:34.827Z,4.2
2019-04-21T10:55:26.112Z,4
2019-04-21T10:59:52.674Z,4.3
2019-04-21T11:04:56.568Z,4.1
2019-04-21T11:10:05.345Z,4.1
2019-04-21T11:15:14.542Z,4
2019-04-21T11:20:19.200Z,4.3
2019-04-21T11:25:28.194Z,4.3
2019-04-21T11:30:35.847Z,4.5
2019-04-21T11:35:43.431Z,3.9
2019-04-21T11:40:51.760Z,4.5
2019-04-21T11:46:00.190Z,4.5
2019-04-21T11:51:08.897Z,3.8
2019-04-21T11:56:18.801Z,3.9
2019-04-21T12:01:19.354Z,4
2019-04-21T12:06:41.264Z,3.8
2019-04-21T12:11:35.655Z,4.4
2019-04-21T12:16:43.252Z,4.4
2019-04-21T12:22:10.854Z,3.5
2019-04-21T12:26:53.871Z,3.6
2019-04-21T12:32:03.396Z,4
2019-04-21T12:37:13.000Z,3.7
2019-04-21T12:42:18.538Z,3.5
2019-04-21T12:47:19.602Z,3.8
2019-04-21T12:52:24.981Z,3.8
2019-04-21T12:57:37.243Z,4.2
2019-04-21T13:02:35.765Z,3.9
2019-04-21T13:07:45.657Z,3.7
2019-04-21T13:12:47.896Z,3.7
2019-04-21T13:17:48.316Z,3.6
2019-04-21T13:22:55.629Z,3.5
2019-04-21T13:28:04.989Z,4.1
2019-04-21T13:33:05.064Z,4
2019-04-21T13:38:29.896Z,3.9
2019-04-21T13:43:18.977Z,3.9
2019-04-21T13:48:28.590Z,4.2
2019-04-21T13:53:29.431Z,4.1
2019-04-21T13:58:40.070Z,4.2
2019-04-21T14:03:49.356Z,3.9
2019-04-21T14:08:58.991Z,4
2019-04-21T14:14:08.141Z,3.7
2019-04-21T14:19:17.240Z,3.9
2019-04-21T14:24:26.686Z,4.4
2019-04-21T14:29:35.453Z,4.1
2019-04-21T14:34:44.072Z,4.9
2019-04-21T14:40:01.234Z,4.2
2019-04-21T14:44:52.063Z,4.2
2019-04-21T14:50:00.869Z,4.1
2019-04-21T14:55:08.829Z,4.1
2019-04-21T15:00:15.434Z,4.7
2019-04-21T15:05:22.729Z,4.4
2019-04-21T15:10:36.719Z,4.4
2019-04-21T15:15:35.820Z,3.9
2019-04-21T15:20:48.515Z,4.2
2019-04-21T15:25:52.328Z,3.8
2019-04-21T15:31:02.721Z,4.2
2019-04-21T15:36:11.071Z,4.1
2019-04-21T15:41:20.568Z,3.9
2019-04-21T15:46:22.605Z,4.4
2019-04-21T15:51:31.619Z,4.1
2019-04-21T15:56:40.410Z,4.6
2019-04-21T16:01:48.337Z,5.6
2019-04-21T16:06:57.436Z,3.9
2019-04-21T16:11:57.911Z,4.3
2019-04-21T16:17:07.545Z,4
2019-04-21T16:22:06.406Z,4
2019-04-21T16:27:15.241Z,4.6
2019-04-21T16:32:25.919Z,4.2
2019-04-21T16:37:25.624Z,4.6
2019-04-21T16:42:34.151Z,4.1
2019-04-21T16:47:47.421Z,3.7
2019-04-21T16:52:54.104Z,3.8
2019-04-21T16:58:14.518Z,4.3
2019-04-21T17:03:04.280Z,6.6
2019-04-21T17:08:07.983Z,4.4
2019-04-21T17:13:15.637Z,4.6
2019-04-21T17:18:57.298Z,5
2019-04-21T17:23:31.434Z,9.1
2019-04-21T17:28:31.149Z,11.9
2019-04-21T17:33:37.086Z,16.4
2019-04-21T17:38:37.553Z,15.4
2019-04-21T17:43:45.614Z,12.4
2019-04-21T17:48:45.056Z,16.8
2019-04-21T17:53:55.626Z,17.3
2019-04-21T17:59:50.477Z,12.6
2019-04-21T18:04:46.607Z,10.1
2019-04-21T18:10:03.995Z,9.1
2019-04-21T18:14:13.422Z,9.1
2019-04-21T18:19:15.116Z,10.9
2019-04-21T18:24:35.211Z,15.2
2019-04-21T18:29:27.674Z,17.6
2019-04-21T18:34:47.630Z,14.3
2019-04-21T18:40:06.584Z,13.8
2019-04-21T18:45:54.458Z,9.8
2019-04-21T18:49:50.272Z,8.9
2019-04-21T18:55:24.892Z,8.2
2019-04-21T19:00:03.051Z,7.6
2019-04-21T19:05:17.512Z,7.9
2019-04-21T19:11:00.954Z,8.9
2019-04-21T19:21:05.247Z,8.5
2019-04-21T19:26:14.703Z,6.7
2019-04-21T19:31:22.916Z,7
2019-04-21T19:35:49.746Z,10.5
2019-04-21T19:41:29.941Z,8.3
2019-04-21T19:46:37.949Z,7.1
2019-04-21T19:51:43.600Z,8.9
2019-04-21T19:56:19.824Z,8.4
2019-04-21T20:01:29.687Z,8
2019-04-21T20:07:02.654Z,8.9
2019-04-21T20:12:15.702Z,13.1
2019-04-21T20:17:13.297Z,12
2019-04-21T20:21:53.447Z,13.5
2019-04-21T20:27:17.519Z,13.7
2019-04-21T20:32:55.823Z,12.8
2019-04-21T20:37:47.566Z,12.9
2019-04-21T20:42:42.215Z,11.2
2019-04-21T20:47:39.085Z,9.7
2019-04-21T20:53:04.443Z,9.3
2019-04-21T20:58:03.970Z,8.8
2019-04-21T21:03:24.129Z,8.4
2019-04-21T21:08:35.366Z,7.6
2019-04-21T21:13:42.431Z,6.5
2019-04-21T21:19:16.405Z,7.6
2019-04-21T21:23:42.031Z,8.5
2019-04-21T21:28:42.770Z,9.8
2019-04-21T21:34:14.865Z,9.6
2019-04-21T21:39:10.817Z,10.1
2019-04-21T21:43:36.640Z,9.1
2019-04-21T21:48:56.117Z,9.8
2019-04-21T21:53:45.733Z,9.5
2019-04-21T21:58:50.036Z,8.8
2019-04-21T22:04:13.034Z,8
2019-04-21T22:08:56.569Z,7.6
2019-04-21T22:14:14.551Z,7.1
2019-04-21T22:19:38.624Z,7.8
2019-04-21T22:24:25.299Z,7.9
2019-04-21T22:29:15.886Z,11.4
2019-04-21T22:34:38.092Z,7.8
2019-04-21T22:40:00.624Z,7.8
2019-04-21T22:44:26.500Z,7.7
2019-04-21T22:49:34.761Z,7.1
2019-04-21T22:54:47.213Z,7.3
2019-04-21T23:00:01.732Z,6.6
2019-04-21T23:04:58.569Z,7
2019-04-21T23:10:01.075Z,6.7
2019-04-21T23:15:20.583Z,6.6
2019-04-21T23:20:53.383Z,7.1
2019-04-21T23:25:45.756Z,6.9
2019-04-21T23:31:00.288Z,7
2019-04-21T23:35:30.333Z,7.1
2019-04-21T23:40:25.232Z,7
2019-04-21T23:45:36.736Z,7.5
2019-04-21T23:50:54.647Z,7.9
2019-04-21T23:55:37.054Z,7.9
